sensor_id;sensor_type;location;lat;lon;timestamp;P1;durP1;ratioP1;P2;durP2;ratioP2
24995;SDS011;13016;52.162;21.034;2022-11-30T00:01:49;18.20;;;10.70;;
24995;SDS011;13016;52.162;21.034;2022-11-30T00:04:14;17.50;;;11.00;;
24995;SDS011;13016;52.162;21.034;2022-11-30T00:06:43;16.40;;;11.30;;
24995;SDS011;13016;52.162;21.034;2022-11-30T00:09:08;16.30;;;10.80;;
24995;SDS011;13016;52.162;21.034;2022-11-30T00:11:33;20.30;;;12.10;;
24995;SDS011;13016;52.162;21.034;2022-11-30T00:13:58;25.20;;;15.50;;
24995;SDS011;13016;52.162;21.034;2022-11-30T00:16:24;24.20;;;14.40;;
24995;SDS011;13016;52.162;21.034;2022-11-30T00:18:49;18.20;;;11.40;;
24995;SDS011;13016;52.162;21.034;2022-11-30T00:21:15;19.10;;;11.00;;
24995;SDS011;13016;52.162;21.034;2022-11-30T00:23:41;18.50;;;11.90;;
24995;SDS011;13016;52.162;21.034;2022-11-30T00:26:10;18.50;;;11.80;;
24995;SDS011;13016;52.162;21.034;2022-11-30T00:28:40;23.30;;;12.10;;
24995;SDS011;13016;52.162;21.034;2022-11-30T00:31:08;18.80;;;12.00;;
24995;SDS011;13016;52.162;21.034;2022-11-30T00:33:35;20.00;;;12.50;;
24995;SDS011;13016;52.162;21.034;2022-11-30T00:36:02;23.30;;;12.40;;
24995;SDS011;13016;52.162;21.034;2022-11-30T00:38:30;18.80;;;12.10;;
24995;SDS011;13016;52.162;21.034;2022-11-30T00:40:56;19.20;;;12.50;;
24995;SDS011;13016;52.162;21.034;2022-11-30T00:43:21;20.40;;;12.50;;
24995;SDS011;13016;52.162;21.034;2022-11-30T00:45:46;19.60;;;12.20;;
24995;SDS011;13016;52.162;21.034;2022-11-30T00:48:12;19.90;;;12.50;;
24995;SDS011;13016;52.162;21.034;2022-11-30T00:50:37;21.00;;;13.20;;
24995;SDS011;13016;52.162;21.034;2022-11-30T00:53:02;20.80;;;12.60;;
24995;SDS011;13016;52.162;21.034;2022-11-30T00:55:28;19.70;;;12.00;;
24995;SDS011;13016;52.162;21.034;2022-11-30T00:57:53;19.90;;;12.30;;
24995;SDS011;13016;52.162;21.034;2022-11-30T01:00:18;19.70;;;12.20;;
24995;SDS011;13016;52.162;21.034;2022-11-30T01:02:44;20.50;;;12.00;;
24995;SDS011;13016;52.162;21.034;2022-11-30T01:05:09;18.80;;;11.80;;
24995;SDS011;13016;52.162;21.034;2022-11-30T01:07:35;21.40;;;13.40;;
24995;SDS011;13016;52.162;21.034;2022-11-30T01:10:03;20.10;;;12.00;;
24995;SDS011;13016;52.162;21.034;2022-11-30T01:12:29;19.40;;;11.40;;
24995;SDS011;13016;52.162;21.034;2022-11-30T01:14:54;19.90;;;12.20;;
24995;SDS011;13016;52.162;21.034;2022-11-30T01:17:19;20.90;;;12.50;;
24995;SDS011;13016;52.162;21.034;2022-11-30T01:19:45;21.40;;;12.20;;
24995;SDS011;13016;52.162;21.034;2022-11-30T01:22:10;21.50;;;11.60;;
24995;SDS011;13016;52.162;21.034;2022-11-30T01:24:35;20.10;;;12.00;;
24995;SDS011;13016;52.162;21.034;2022-11-30T01:27:01;21.40;;;13.10;;
24995;SDS011;13016;52.162;21.034;2022-11-30T01:29:26;20.00;;;11.80;;
24995;SDS011;13016;52.162;21.034;2022-11-30T01:31:51;19.00;;;11.70;;
24995;SDS011;13016;52.162;21.034;2022-11-30T01:34:16;18.90;;;12.70;;
24995;SDS011;13016;52.162;21.034;2022-11-30T01:36:42;20.00;;;12.10;;
24995;SDS011;13016;52.162;21.034;2022-11-30T01:39:07;19.90;;;12.30;;
24995;SDS011;13016;52.162;21.034;2022-11-30T01:41:33;18.90;;;11.70;;
24995;SDS011;13016;52.162;21.034;2022-11-30T01:51:42;20.30;;;12.20;;
24995;SDS011;13016;52.162;21.034;2022-11-30T01:54:13;20.50;;;12.10;;
24995;SDS011;13016;52.162;21.034;2022-11-30T01:56:41;22.70;;;11.60;;
24995;SDS011;13016;52.162;21.034;2022-11-30T01:59:11;23.30;;;12.90;;
24995;SDS011;13016;52.162;21.034;2022-11-30T02:01:37;21.70;;;12.60;;
24995;SDS011;13016;52.162;21.034;2022-11-30T02:04:25;18.30;;;11.20;;
24995;SDS011;13016;52.162;21.034;2022-11-30T02:06:55;18.10;;;11.70;;
24995;SDS011;13016;52.162;21.034;2022-11-30T02:09:22;21.60;;;12.00;;
24995;SDS011;13016;52.162;21.034;2022-11-30T02:11:50;18.40;;;11.90;;
24995;SDS011;13016;52.162;21.034;2022-11-30T02:30:54;21.90;;;12.80;;
24995;SDS011;13016;52.162;21.034;2022-11-30T02:33:26;20.60;;;12.40;;
24995;SDS011;13016;52.162;21.034;2022-11-30T02:35:55;20.00;;;12.30;;
24995;SDS011;13016;52.162;21.034;2022-11-30T02:38:22;17.90;;;11.60;;
24995;SDS011;13016;52.162;21.034;2022-11-30T02:40:50;20.40;;;12.10;;
24995;SDS011;13016;52.162;21.034;2022-11-30T02:43:15;18.60;;;11.80;;
24995;SDS011;13016;52.162;21.034;2022-11-30T02:51:35;21.40;;;11.80;;
24995;SDS011;13016;52.162;21.034;2022-11-30T02:54:02;18.70;;;12.00;;
24995;SDS011;13016;52.162;21.034;2022-11-30T02:56:28;19.00;;;11.50;;
24995;SDS011;13016;52.162;21.034;2022-11-30T02:58:53;19.50;;;11.60;;
24995;SDS011;13016;52.162;21.034;2022-11-30T03:01:19;16.90;;;10.60;;
24995;SDS011;13016;52.162;21.034;2022-11-30T03:03:45;17.30;;;10.50;;
24995;SDS011;13016;52.162;21.034;2022-11-30T03:06:10;21.00;;;11.50;;
24995;SDS011;13016;52.162;21.034;2022-11-30T03:08:35;18.10;;;10.90;;
24995;SDS011;13016;52.162;21.034;2022-11-30T03:11:02;18.80;;;11.40;;
24995;SDS011;13016;52.162;21.034;2022-11-30T03:13:28;18.10;;;11.70;;
24995;SDS011;13016;52.162;21.034;2022-11-30T03:15:54;18.60;;;10.90;;
24995;SDS011;13016;52.162;21.034;2022-11-30T03:18:20;17.30;;;11.10;;
24995;SDS011;13016;52.162;21.034;2022-11-30T03:20:45;18.50;;;11.00;;
24995;SDS011;13016;52.162;21.034;2022-11-30T03:23:10;17.00;;;11.10;;
24995;SDS011;13016;52.162;21.034;2022-11-30T03:25:35;16.80;;;10.20;;
24995;SDS011;13016;52.162;21.034;2022-11-30T03:28:01;20.00;;;12.10;;
24995;SDS011;13016;52.162;21.034;2022-11-30T03:30:26;18.30;;;10.90;;
24995;SDS011;13016;52.162;21.034;2022-11-30T03:32:52;17.90;;;11.40;;
24995;SDS011;13016;52.162;21.034;2022-11-30T03:35:17;19.80;;;12.10;;
24995;SDS011;13016;52.162;21.034;2022-11-30T03:37:43;16.20;;;10.80;;
24995;SDS011;13016;52.162;21.034;2022-11-30T03:40:08;22.10;;;12.10;;
24995;SDS011;13016;52.162;21.034;2022-11-30T03:42:33;21.30;;;12.30;;
24995;SDS011;13016;52.162;21.034;2022-11-30T03:44:59;20.30;;;11.90;;
24995;SDS011;13016;52.162;21.034;2022-11-30T03:47:24;17.80;;;11.50;;
24995;SDS011;13016;52.162;21.034;2022-11-30T03:49:49;19.20;;;11.60;;
24995;SDS011;13016;52.162;21.034;2022-11-30T03:52:14;19.30;;;12.20;;
24995;SDS011;13016;52.162;21.034;2022-11-30T03:54:40;18.20;;;11.90;;
24995;SDS011;13016;52.162;21.034;2022-11-30T03:57:05;16.90;;;11.00;;
24995;SDS011;13016;52.162;21.034;2022-11-30T03:59:30;17.20;;;11.10;;
24995;SDS011;13016;52.162;21.034;2022-11-30T04:01:55;18.40;;;11.90;;
24995;SDS011;13016;52.162;21.034;2022-11-30T04:04:21;20.10;;;12.10;;
24995;SDS011;13016;52.162;21.034;2022-11-30T04:06:46;21.20;;;11.70;;
24995;SDS011;13016;52.162;21.034;2022-11-30T04:09:11;18.60;;;11.50;;
24995;SDS011;13016;52.162;21.034;2022-11-30T04:11:37;18.50;;;11.90;;
24995;SDS011;13016;52.162;21.034;2022-11-30T04:14:02;18.70;;;11.90;;
24995;SDS011;13016;52.162;21.034;2022-11-30T04:16:27;22.70;;;12.50;;
24995;SDS011;13016;52.162;21.034;2022-11-30T04:18:52;19.40;;;12.60;;
24995;SDS011;13016;52.162;21.034;2022-11-30T04:21:21;19.80;;;11.90;;
24995;SDS011;13016;52.162;21.034;2022-11-30T04:23:46;19.40;;;11.90;;
24995;SDS011;13016;52.162;21.034;2022-11-30T04:26:12;22.70;;;12.70;;
24995;SDS011;13016;52.162;21.034;2022-11-30T04:28:39;17.60;;;11.00;;
24995;SDS011;13016;52.162;21.034;2022-11-30T04:31:05;18.70;;;12.40;;
24995;SDS011;13016;52.162;21.034;2022-11-30T04:33:30;18.60;;;12.20;;
24995;SDS011;13016;52.162;21.034;2022-11-30T04:35:59;19.30;;;11.70;;
24995;SDS011;13016;52.162;21.034;2022-11-30T04:38:26;20.60;;;12.30;;
24995;SDS011;13016;52.162;21.034;2022-11-30T04:40:52;18.00;;;12.20;;
24995;SDS011;13016;52.162;21.034;2022-11-30T04:43:18;18.80;;;12.10;;
24995;SDS011;13016;52.162;21.034;2022-11-30T04:45:43;20.50;;;12.00;;
24995;SDS011;13016;52.162;21.034;2022-11-30T04:48:09;21.90;;;12.40;;
24995;SDS011;13016;52.162;21.034;2022-11-30T04:50:38;20.20;;;11.30;;
24995;SDS011;13016;52.162;21.034;2022-11-30T04:53:04;20.30;;;12.50;;
24995;SDS011;13016;52.162;21.034;2022-11-30T04:55:29;19.40;;;11.90;;
24995;SDS011;13016;52.162;21.034;2022-11-30T04:57:55;19.20;;;12.10;;
24995;SDS011;13016;52.162;21.034;2022-11-30T05:00:20;18.80;;;11.90;;
24995;SDS011;13016;52.162;21.034;2022-11-30T05:02:46;18.00;;;11.90;;
24995;SDS011;13016;52.162;21.034;2022-11-30T05:05:11;18.70;;;11.90;;
24995;SDS011;13016;52.162;21.034;2022-11-30T05:07:40;18.60;;;12.30;;
24995;SDS011;13016;52.162;21.034;2022-11-30T05:10:05;19.50;;;12.00;;
24995;SDS011;13016;52.162;21.034;2022-11-30T05:12:31;20.10;;;11.10;;
24995;SDS011;13016;52.162;21.034;2022-11-30T05:14:57;18.90;;;12.20;;
24995;SDS011;13016;52.162;21.034;2022-11-30T05:17:22;22.10;;;11.90;;
24995;SDS011;13016;52.162;21.034;2022-11-30T05:19:48;18.00;;;11.50;;
24995;SDS011;13016;52.162;21.034;2022-11-30T05:22:13;18.30;;;11.40;;
24995;SDS011;13016;52.162;21.034;2022-11-30T05:24:40;21.90;;;12.40;;
24995;SDS011;13016;52.162;21.034;2022-11-30T05:27:05;19.10;;;12.00;;
24995;SDS011;13016;52.162;21.034;2022-11-30T05:29:30;19.30;;;11.80;;
24995;SDS011;13016;52.162;21.034;2022-11-30T05:31:56;20.10;;;11.90;;
24995;SDS011;13016;52.162;21.034;2022-11-30T05:34:21;18.30;;;11.70;;
24995;SDS011;13016;52.162;21.034;2022-11-30T05:36:46;18.60;;;11.60;;
24995;SDS011;13016;52.162;21.034;2022-11-30T05:39:11;19.90;;;12.20;;
24995;SDS011;13016;52.162;21.034;2022-11-30T05:41:37;18.30;;;11.80;;
24995;SDS011;13016;52.162;21.034;2022-11-30T05:44:02;18.40;;;11.20;;
24995;SDS011;13016;52.162;21.034;2022-11-30T05:46:28;20.00;;;11.50;;
24995;SDS011;13016;52.162;21.034;2022-11-30T05:48:53;16.60;;;11.10;;
24995;SDS011;13016;52.162;21.034;2022-11-30T05:51:19;18.00;;;11.00;;
24995;SDS011;13016;52.162;21.034;2022-11-30T05:53:45;18.20;;;11.60;;
24995;SDS011;13016;52.162;21.034;2022-11-30T05:56:13;19.00;;;11.60;;
24995;SDS011;13016;52.162;21.034;2022-11-30T05:58:40;18.20;;;11.10;;
24995;SDS011;13016;52.162;21.034;2022-11-30T06:01:06;17.40;;;11.20;;
24995;SDS011;13016;52.162;21.034;2022-11-30T06:03:32;16.60;;;11.20;;
24995;SDS011;13016;52.162;21.034;2022-11-30T06:05:58;17.70;;;11.10;;
24995;SDS011;13016;52.162;21.034;2022-11-30T06:08:24;17.90;;;11.30;;
24995;SDS011;13016;52.162;21.034;2022-11-30T06:10:49;18.10;;;11.10;;
24995;SDS011;13016;52.162;21.034;2022-11-30T06:13:15;18.70;;;11.70;;
24995;SDS011;13016;52.162;21.034;2022-11-30T06:15:40;18.50;;;11.00;;
24995;SDS011;13016;52.162;21.034;2022-11-30T06:18:06;17.80;;;11.50;;
24995;SDS011;13016;52.162;21.034;2022-11-30T06:20:32;21.00;;;12.30;;
24995;SDS011;13016;52.162;21.034;2022-11-30T06:22:58;19.80;;;11.80;;
24995;SDS011;13016;52.162;21.034;2022-11-30T06:25:24;20.40;;;12.30;;
24995;SDS011;13016;52.162;21.034;2022-11-30T06:27:50;24.10;;;13.20;;
24995;SDS011;13016;52.162;21.034;2022-11-30T06:30:15;19.40;;;11.80;;
24995;SDS011;13016;52.162;21.034;2022-11-30T06:32:53;19.90;;;12.60;;
24995;SDS011;13016;52.162;21.034;2022-11-30T06:35:18;24.00;;;13.90;;
24995;SDS011;13016;52.162;21.034;2022-11-30T06:37:44;22.40;;;12.90;;
24995;SDS011;13016;52.162;21.034;2022-11-30T06:40:10;19.60;;;12.70;;
24995;SDS011;13016;52.162;21.034;2022-11-30T06:42:37;21.40;;;12.70;;
24995;SDS011;13016;52.162;21.034;2022-11-30T06:45:03;19.50;;;13.10;;
24995;SDS011;13016;52.162;21.034;2022-11-30T06:47:29;20.10;;;12.60;;
24995;SDS011;13016;52.162;21.034;2022-11-30T06:49:54;19.30;;;13.30;;
24995;SDS011;13016;52.162;21.034;2022-11-30T06:52:20;21.20;;;13.20;;
24995;SDS011;13016;52.162;21.034;2022-11-30T06:54:45;21.30;;;13.00;;
24995;SDS011;13016;52.162;21.034;2022-11-30T06:57:10;19.80;;;12.60;;
24995;SDS011;13016;52.162;21.034;2022-11-30T06:59:36;22.10;;;13.60;;
24995;SDS011;13016;52.162;21.034;2022-11-30T07:02:02;20.60;;;12.60;;
24995;SDS011;13016;52.162;21.034;2022-11-30T07:04:27;20.00;;;13.10;;
24995;SDS011;13016;52.162;21.034;2022-11-30T07:06:53;20.90;;;12.90;;
24995;SDS011;13016;52.162;21.034;2022-11-30T07:09:18;22.80;;;13.60;;
24995;SDS011;13016;52.162;21.034;2022-11-30T07:11:43;34.10;;;22.00;;
24995;SDS011;13016;52.162;21.034;2022-11-30T07:14:10;23.00;;;14.60;;
24995;SDS011;13016;52.162;21.034;2022-11-30T07:16:35;22.60;;;13.30;;
24995;SDS011;13016;52.162;21.034;2022-11-30T07:19:01;20.10;;;12.50;;
24995;SDS011;13016;52.162;21.034;2022-11-30T07:21:26;21.90;;;12.90;;
24995;SDS011;13016;52.162;21.034;2022-11-30T07:23:53;21.50;;;13.00;;
24995;SDS011;13016;52.162;21.034;2022-11-30T07:26:18;19.80;;;12.80;;
24995;SDS011;13016;52.162;21.034;2022-11-30T07:28:47;21.60;;;13.30;;
24995;SDS011;13016;52.162;21.034;2022-11-30T07:31:25;22.70;;;13.00;;
24995;SDS011;13016;52.162;21.034;2022-11-30T07:33:52;20.10;;;13.10;;
24995;SDS011;13016;52.162;21.034;2022-11-30T07:36:19;26.20;;;14.00;;
24995;SDS011;13016;52.162;21.034;2022-11-30T07:38:46;21.60;;;13.10;;
24995;SDS011;13016;52.162;21.034;2022-11-30T07:41:12;21.90;;;13.50;;
24995;SDS011;13016;52.162;21.034;2022-11-30T07:43:38;20.80;;;12.60;;
24995;SDS011;13016;52.162;21.034;2022-11-30T07:46:04;20.80;;;12.30;;
24995;SDS011;13016;52.162;21.034;2022-11-30T07:48:30;21.70;;;12.40;;
24995;SDS011;13016;52.162;21.034;2022-11-30T07:51:05;19.30;;;12.10;;
24995;SDS011;13016;52.162;21.034;2022-11-30T07:53:32;19.40;;;12.70;;
24995;SDS011;13016;52.162;21.034;2022-11-30T07:56:01;20.20;;;12.30;;
24995;SDS011;13016;52.162;21.034;2022-11-30T07:58:27;20.70;;;12.90;;
24995;SDS011;13016;52.162;21.034;2022-11-30T08:00:53;20.50;;;12.70;;
24995;SDS011;13016;52.162;21.034;2022-11-30T08:03:18;18.90;;;12.30;;
24995;SDS011;13016;52.162;21.034;2022-11-30T08:05:43;21.80;;;13.30;;
24995;SDS011;13016;52.162;21.034;2022-11-30T08:08:09;22.70;;;13.30;;
24995;SDS011;13016;52.162;21.034;2022-11-30T08:10:34;21.30;;;13.30;;
24995;SDS011;13016;52.162;21.034;2022-11-30T08:12:59;22.10;;;12.50;;
24995;SDS011;13016;52.162;21.034;2022-11-30T08:15:24;21.60;;;12.10;;
24995;SDS011;13016;52.162;21.034;2022-11-30T08:17:50;21.00;;;12.80;;
24995;SDS011;13016;52.162;21.034;2022-11-30T08:20:15;20.50;;;13.00;;
24995;SDS011;13016;52.162;21.034;2022-11-30T08:22:40;21.60;;;13.00;;
24995;SDS011;13016;52.162;21.034;2022-11-30T08:25:06;20.30;;;12.40;;
24995;SDS011;13016;52.162;21.034;2022-11-30T08:27:31;18.00;;;11.80;;
24995;SDS011;13016;52.162;21.034;2022-11-30T08:29:57;20.00;;;12.30;;
24995;SDS011;13016;52.162;21.034;2022-11-30T08:32:25;18.80;;;11.90;;
24995;SDS011;13016;52.162;21.034;2022-11-30T08:34:50;21.90;;;13.20;;
24995;SDS011;13016;52.162;21.034;2022-11-30T08:37:15;20.00;;;12.00;;
24995;SDS011;13016;52.162;21.034;2022-11-30T08:39:41;19.70;;;12.40;;
24995;SDS011;13016;52.162;21.034;2022-11-30T08:42:06;18.30;;;11.60;;
24995;SDS011;13016;52.162;21.034;2022-11-30T08:44:31;19.50;;;12.00;;
24995;SDS011;13016;52.162;21.034;2022-11-30T08:46:57;19.50;;;11.70;;
24995;SDS011;13016;52.162;21.034;2022-11-30T08:49:22;17.20;;;11.10;;
24995;SDS011;13016;52.162;21.034;2022-11-30T08:51:48;22.50;;;12.70;;
24995;SDS011;13016;52.162;21.034;2022-11-30T08:54:15;20.70;;;12.40;;
24995;SDS011;13016;52.162;21.034;2022-11-30T08:56:40;18.00;;;12.50;;
24995;SDS011;13016;52.162;21.034;2022-11-30T08:59:05;18.40;;;11.90;;
24995;SDS011;13016;52.162;21.034;2022-11-30T09:01:31;17.20;;;11.40;;
24995;SDS011;13016;52.162;21.034;2022-11-30T09:03:57;19.50;;;11.80;;
24995;SDS011;13016;52.162;21.034;2022-11-30T09:06:25;20.50;;;12.30;;
24995;SDS011;13016;52.162;21.034;2022-11-30T09:08:55;17.40;;;11.70;;
24995;SDS011;13016;52.162;21.034;2022-11-30T09:11:23;18.30;;;11.60;;
24995;SDS011;13016;52.162;21.034;2022-11-30T09:13:53;18.90;;;11.70;;
24995;SDS011;13016;52.162;21.034;2022-11-30T09:16:19;19.30;;;11.80;;
24995;SDS011;13016;52.162;21.034;2022-11-30T09:18:45;28.50;;;18.80;;
24995;SDS011;13016;52.162;21.034;2022-11-30T09:21:12;20.70;;;13.20;;
24995;SDS011;13016;52.162;21.034;2022-11-30T09:23:40;16.60;;;11.60;;
24995;SDS011;13016;52.162;21.034;2022-11-30T09:26:07;17.70;;;12.00;;
24995;SDS011;13016;52.162;21.034;2022-11-30T09:28:35;19.20;;;12.70;;
24995;SDS011;13016;52.162;21.034;2022-11-30T09:31:04;20.30;;;12.50;;
24995;SDS011;13016;52.162;21.034;2022-11-30T09:33:33;19.40;;;11.20;;
24995;SDS011;13016;52.162;21.034;2022-11-30T09:35:59;22.40;;;12.60;;
24995;SDS011;13016;52.162;21.034;2022-11-30T09:38:26;20.10;;;12.00;;
24995;SDS011;13016;52.162;21.034;2022-11-30T09:40:56;19.20;;;12.10;;
24995;SDS011;13016;52.162;21.034;2022-11-30T09:46:03;19.90;;;11.50;;
24995;SDS011;13016;52.162;21.034;2022-11-30T09:51:29;17.60;;;11.30;;
24995;SDS011;13016;52.162;21.034;2022-11-30T09:54:05;19.40;;;10.90;;
24995;SDS011;13016;52.162;21.034;2022-11-30T09:59:03;15.90;;;10.50;;
24995;SDS011;13016;52.162;21.034;2022-11-30T10:01:37;16.30;;;10.40;;
24995;SDS011;13016;52.162;21.034;2022-11-30T10:04:03;14.90;;;9.40;;
24995;SDS011;13016;52.162;21.034;2022-11-30T10:06:47;15.50;;;9.70;;
24995;SDS011;13016;52.162;21.034;2022-11-30T10:09:28;12.50;;;8.10;;
24995;SDS011;13016;52.162;21.034;2022-11-30T10:12:04;13.50;;;8.20;;
24995;SDS011;13016;52.162;21.034;2022-11-30T10:22:29;14.90;;;9.30;;
24995;SDS011;13016;52.162;21.034;2022-11-30T10:25:23;14.60;;;9.20;;
24995;SDS011;13016;52.162;21.034;2022-11-30T10:30:50;14.80;;;9.20;;
24995;SDS011;13016;52.162;21.034;2022-11-30T10:33:16;15.30;;;9.10;;
24995;SDS011;13016;52.162;21.034;2022-11-30T10:35:56;15.60;;;9.10;;
24995;SDS011;13016;52.162;21.034;2022-11-30T10:38:34;17.80;;;11.00;;
24995;SDS011;13016;52.162;21.034;2022-11-30T10:41:09;16.90;;;10.60;;
24995;SDS011;13016;52.162;21.034;2022-11-30T10:43:45;17.30;;;11.10;;
24995;SDS011;13016;52.162;21.034;2022-11-30T10:46:23;18.20;;;11.00;;
24995;SDS011;13016;52.162;21.034;2022-11-30T10:48:58;18.90;;;11.00;;
24995;SDS011;13016;52.162;21.034;2022-11-30T10:51:29;18.00;;;11.20;;
24995;SDS011;13016;52.162;21.034;2022-11-30T10:53:57;18.30;;;11.20;;
24995;SDS011;13016;52.162;21.034;2022-11-30T10:56:22;14.10;;;9.70;;
24995;SDS011;13016;52.162;21.034;2022-11-30T10:58:52;18.20;;;10.40;;
24995;SDS011;13016;52.162;21.034;2022-11-30T11:01:33;16.60;;;10.70;;
24995;SDS011;13016;52.162;21.034;2022-11-30T11:06:45;17.60;;;10.80;;
24995;SDS011;13016;52.162;21.034;2022-11-30T11:11:54;16.10;;;9.60;;
24995;SDS011;13016;52.162;21.034;2022-11-30T11:14:22;15.90;;;10.40;;
24995;SDS011;13016;52.162;21.034;2022-11-30T11:16:56;16.10;;;9.60;;
24995;SDS011;13016;52.162;21.034;2022-11-30T11:19:23;16.80;;;9.70;;
24995;SDS011;13016;52.162;21.034;2022-11-30T11:21:51;16.60;;;9.70;;
24995;SDS011;13016;52.162;21.034;2022-11-30T11:24:17;14.40;;;9.10;;
24995;SDS011;13016;52.162;21.034;2022-11-30T11:26:49;16.50;;;10.30;;
24995;SDS011;13016;52.162;21.034;2022-11-30T11:29:29;14.60;;;9.70;;
24995;SDS011;13016;52.162;21.034;2022-11-30T11:32:08;15.20;;;8.70;;
24995;SDS011;13016;52.162;21.034;2022-11-30T11:34:45;15.20;;;9.50;;
24995;SDS011;13016;52.162;21.034;2022-11-30T11:42:28;15.30;;;8.60;;
24995;SDS011;13016;52.162;21.034;2022-11-30T11:44:58;18.00;;;10.30;;
24995;SDS011;13016;52.162;21.034;2022-11-30T11:47:30;14.80;;;9.10;;
24995;SDS011;13016;52.162;21.034;2022-11-30T11:55:02;14.10;;;8.90;;
24995;SDS011;13016;52.162;21.034;2022-11-30T11:57:35;14.70;;;8.40;;
24995;SDS011;13016;52.162;21.034;2022-11-30T12:00:09;15.50;;;9.30;;
24995;SDS011;13016;52.162;21.034;2022-11-30T12:02:52;17.00;;;9.20;;
24995;SDS011;13016;52.162;21.034;2022-11-30T12:05:31;14.50;;;8.90;;
24995;SDS011;13016;52.162;21.034;2022-11-30T12:08:13;15.20;;;9.10;;
24995;SDS011;13016;52.162;21.034;2022-11-30T12:10:54;14.20;;;8.80;;
24995;SDS011;13016;52.162;21.034;2022-11-30T12:13:28;15.30;;;8.30;;
24995;SDS011;13016;52.162;21.034;2022-11-30T12:18:41;16.20;;;9.80;;
24995;SDS011;13016;52.162;21.034;2022-11-30T12:21:22;13.20;;;8.80;;
24995;SDS011;13016;52.162;21.034;2022-11-30T12:41:17;14.50;;;9.10;;
24995;SDS011;13016;52.162;21.034;2022-11-30T12:43:59;14.60;;;8.80;;
24995;SDS011;13016;52.162;21.034;2022-11-30T12:46:59;15.60;;;9.10;;
24995;SDS011;13016;52.162;21.034;2022-11-30T12:49:44;15.20;;;8.70;;
24995;SDS011;13016;52.162;21.034;2022-11-30T13:06:11;14.40;;;8.70;;
24995;SDS011;13016;52.162;21.034;2022-11-30T13:11:28;17.10;;;8.70;;
24995;SDS011;13016;52.162;21.034;2022-11-30T13:14:01;15.80;;;9.00;;
24995;SDS011;13016;52.162;21.034;2022-11-30T13:16:30;18.00;;;9.90;;
24995;SDS011;13016;52.162;21.034;2022-11-30T13:19:01;16.10;;;9.40;;
24995;SDS011;13016;52.162;21.034;2022-11-30T13:21:47;15.00;;;9.70;;
24995;SDS011;13016;52.162;21.034;2022-11-30T13:27:13;14.70;;;8.80;;
24995;SDS011;13016;52.162;21.034;2022-11-30T13:32:25;15.80;;;9.00;;
24995;SDS011;13016;52.162;21.034;2022-11-30T13:34:50;16.40;;;9.70;;
24995;SDS011;13016;52.162;21.034;2022-11-30T13:37:22;18.50;;;9.60;;
24995;SDS011;13016;52.162;21.034;2022-11-30T13:39:56;16.60;;;9.40;;
24995;SDS011;13016;52.162;21.034;2022-11-30T13:42:29;18.10;;;9.80;;
24995;SDS011;13016;52.162;21.034;2022-11-30T13:44:59;17.20;;;10.00;;
24995;SDS011;13016;52.162;21.034;2022-11-30T13:47:38;16.40;;;10.20;;
24995;SDS011;13016;52.162;21.034;2022-11-30T14:05:50;19.20;;;10.40;;
24995;SDS011;13016;52.162;21.034;2022-11-30T14:10:44;15.80;;;9.80;;
24995;SDS011;13016;52.162;21.034;2022-11-30T14:20:38;20.80;;;10.50;;
24995;SDS011;13016;52.162;21.034;2022-11-30T14:23:12;17.60;;;10.10;;
24995;SDS011;13016;52.162;21.034;2022-11-30T14:25:45;18.00;;;11.00;;
24995;SDS011;13016;52.162;21.034;2022-11-30T14:28:20;18.50;;;11.30;;
24995;SDS011;13016;52.162;21.034;2022-11-30T14:30:51;16.00;;;10.80;;
24995;SDS011;13016;52.162;21.034;2022-11-30T14:33:39;16.20;;;10.30;;
24995;SDS011;13016;52.162;21.034;2022-11-30T14:36:09;18.00;;;10.40;;
24995;SDS011;13016;52.162;21.034;2022-11-30T14:38:37;17.50;;;10.50;;
24995;SDS011;13016;52.162;21.034;2022-11-30T14:41:05;16.80;;;10.30;;
24995;SDS011;13016;52.162;21.034;2022-11-30T14:43:33;18.40;;;11.30;;
24995;SDS011;13016;52.162;21.034;2022-11-30T14:45:59;17.40;;;10.90;;
24995;SDS011;13016;52.162;21.034;2022-11-30T14:48:29;17.60;;;10.80;;
24995;SDS011;13016;52.162;21.034;2022-11-30T14:50:55;16.90;;;11.50;;
24995;SDS011;13016;52.162;21.034;2022-11-30T14:58:49;18.30;;;11.00;;
24995;SDS011;13016;52.162;21.034;2022-11-30T15:01:25;18.90;;;10.70;;
24995;SDS011;13016;52.162;21.034;2022-11-30T15:04:02;14.10;;;9.70;;
24995;SDS011;13016;52.162;21.034;2022-11-30T15:06:52;15.70;;;10.30;;
24995;SDS011;13016;52.162;21.034;2022-11-30T15:09:23;16.40;;;9.90;;
24995;SDS011;13016;52.162;21.034;2022-11-30T15:11:52;16.70;;;10.10;;
24995;SDS011;13016;52.162;21.034;2022-11-30T15:14:20;16.00;;;9.30;;
24995;SDS011;13016;52.162;21.034;2022-11-30T15:16:49;18.60;;;10.20;;
24995;SDS011;13016;52.162;21.034;2022-11-30T15:21:50;14.60;;;9.70;;
24995;SDS011;13016;52.162;21.034;2022-11-30T15:24:16;16.00;;;8.90;;
24995;SDS011;13016;52.162;21.034;2022-11-30T15:29:43;15.30;;;9.90;;
24995;SDS011;13016;52.162;21.034;2022-11-30T15:32:16;15.60;;;9.70;;
24995;SDS011;13016;52.162;21.034;2022-11-30T15:34:46;17.30;;;10.50;;
24995;SDS011;13016;52.162;21.034;2022-11-30T15:37:14;19.40;;;10.50;;
24995;SDS011;13016;52.162;21.034;2022-11-30T15:39:40;17.30;;;11.30;;
24995;SDS011;13016;52.162;21.034;2022-11-30T15:42:18;16.10;;;10.50;;
24995;SDS011;13016;52.162;21.034;2022-11-30T15:44:50;17.50;;;10.40;;
24995;SDS011;13016;52.162;21.034;2022-11-30T15:47:52;18.10;;;11.50;;
24995;SDS011;13016;52.162;21.034;2022-11-30T15:55:40;18.50;;;10.60;;
24995;SDS011;13016;52.162;21.034;2022-11-30T16:01:06;19.30;;;10.90;;
24995;SDS011;13016;52.162;21.034;2022-11-30T16:06:19;17.50;;;10.60;;
24995;SDS011;13016;52.162;21.034;2022-11-30T16:08:48;16.20;;;11.10;;
24995;SDS011;13016;52.162;21.034;2022-11-30T16:11:18;18.70;;;10.70;;
24995;SDS011;13016;52.162;21.034;2022-11-30T16:13:46;19.00;;;11.40;;
24995;SDS011;13016;52.162;21.034;2022-11-30T16:16:18;18.90;;;11.30;;
24995;SDS011;13016;52.162;21.034;2022-11-30T16:18:48;18.50;;;11.10;;
24995;SDS011;13016;52.162;21.034;2022-11-30T16:21:17;19.90;;;11.40;;
24995;SDS011;13016;52.162;21.034;2022-11-30T16:23:46;17.40;;;11.10;;
24995;SDS011;13016;52.162;21.034;2022-11-30T16:26:17;17.80;;;11.60;;
24995;SDS011;13016;52.162;21.034;2022-11-30T16:28:43;16.60;;;11.20;;
24995;SDS011;13016;52.162;21.034;2022-11-30T16:31:16;16.60;;;10.80;;
24995;SDS011;13016;52.162;21.034;2022-11-30T16:36:16;18.60;;;10.90;;
24995;SDS011;13016;52.162;21.034;2022-11-30T16:38:46;17.40;;;10.50;;
24995;SDS011;13016;52.162;21.034;2022-11-30T16:41:19;15.40;;;9.90;;
24995;SDS011;13016;52.162;21.034;2022-11-30T16:43:50;16.80;;;10.00;;
24995;SDS011;13016;52.162;21.034;2022-11-30T16:46:22;14.40;;;9.50;;
24995;SDS011;13016;52.162;21.034;2022-11-30T16:48:54;16.00;;;9.60;;
24995;SDS011;13016;52.162;21.034;2022-11-30T16:51:20;13.90;;;9.60;;
24995;SDS011;13016;52.162;21.034;2022-11-30T16:53:51;15.70;;;9.90;;
24995;SDS011;13016;52.162;21.034;2022-11-30T16:56:17;15.50;;;10.10;;